Time,TemperatureF,DewpointF,PressureIn,WindDirection,WindDirectionDegrees,WindSpeedMPH,WindSpeedGustMPH,Humidity,HourlyPrecipIn,Conditions,Clouds,dailyrainin,SoftwareType,DateUTC
2013-01-04 00:00:00,18.5,15.6,30.13,SW,216,16.0,19.9,88,0.00,,CLR,0.00,VWS V14.01,2013-01-04 06:00:00,
2013-01-04 00:10:00,18.7,15.7,30.12,SSW,213,16.0,19.9,88,0.00,,CLR,0.00,VWS V14.01,2013-01-04 06:10:00,
2013-01-04 00:20:00,19.4,16.2,30.12,SW,219,17.0,19.9,87,0.00,,CLR,0.00,VWS V14.01,2013-01-04 06:20:00,
2013-01-04 00:30:00,20.4,16.9,30.11,SW,215,17.0,22.0,86,0.00,,CLR,0.00,VWS V14.01,2013-01-04 06:30:00,
2013-01-04 00:40:00,20.7,16.9,30.11,SW,216,18.0,21.0,85,0.00,,CLR,0.00,VWS V14.01,2013-01-04 06:40:00,
2013-01-04 00:50:00,20.8,17.0,30.11,SW,227,14.0,19.9,85,0.00,,CLR,0.00,VWS V14.01,2013-01-04 06:50:00,
2013-01-04 01:00:00,20.9,17.1,30.13,SSW,198,7.0,18.9,85,0.00,,CLR,0.00,VWS V14.01,2013-01-04 07:00:00,
2013-01-04 01:10:00,19.2,15.4,30.13,West,265,5.0,9.4,85,0.00,,CLR,0.00,VWS V14.01,2013-01-04 07:10:00,
2013-01-04 01:20:00,19.2,15.7,30.13,West,276,4.0,9.4,86,0.00,,CLR,0.00,VWS V14.01,2013-01-04 07:20:00,
2013-01-04 01:30:00,18.8,15.6,30.12,West,263,5.0,11.5,87,0.00,,CLR,0.00,VWS V14.01,2013-01-04 07:30:00,
2013-01-04 01:40:00,19.5,16.3,30.12,SW,228,6.0,12.6,87,0.00,,CLR,0.00,VWS V14.01,2013-01-04 07:40:00,
2013-01-04 01:50:00,20.4,16.9,30.12,West,263,2.0,13.6,86,0.00,,CLR,0.00,VWS V14.01,2013-01-04 07:50:00,
2013-01-04 02:00:00,18.7,14.9,30.13,West,259,3.0,8.4,85,0.00,,CLR,0.00,VWS V14.01,2013-01-04 08:00:00,
2013-01-04 02:10:00,17.6,14.1,30.13,SW,233,5.0,7.3,86,0.00,,CLR,0.00,VWS V14.01,2013-01-04 08:10:00,
2013-01-04 02:20:00,18.2,15.0,30.12,SW,220,5.0,9.4,87,0.00,,CLR,0.00,VWS V14.01,2013-01-04 08:20:00,
2013-01-04 02:30:00,18.9,15.7,30.12,SSW,206,7.0,9.4,87,0.00,,CLR,0.00,VWS V14.01,2013-01-04 08:30:00,
2013-01-04 02:40:00,19.1,15.9,30.12,SW,222,6.0,9.4,87,0.00,,CLR,0.00,VWS V14.01,2013-01-04 08:40:00,
2013-01-04 02:50:00,18.1,14.9,30.12,WNW,286,5.0,8.4,87,0.00,,CLR,0.00,VWS V14.01,2013-01-04 08:50:00,
2013-01-04 03:00:00,16.8,13.4,30.12,SW,226,8.0,10.5,86,0.00,,CLR,0.00,VWS V14.01,2013-01-04 09:00:00,
2013-01-04 03:10:00,18.5,15.6,30.10,SW,223,11.0,12.6,88,0.00,,CLR,0.00,VWS V14.01,2013-01-04 09:10:00,
2013-01-04 03:20:00,19.7,16.2,30.10,SW,231,13.0,15.7,86,0.00,,CLR,0.00,VWS V14.01,2013-01-04 09:20:00,
2013-01-04 03:30:00,19.4,15.9,30.10,SW,222,13.0,15.7,86,0.00,,CLR,0.00,VWS V14.01,2013-01-04 09:30:00,
2013-01-04 03:40:00,19.2,15.4,30.09,SW,223,12.0,15.7,85,0.00,,CLR,0.00,VWS V14.01,2013-01-04 09:40:00,
2013-01-04 03:50:00,17.6,14.1,30.09,SW,221,11.0,15.7,86,0.00,,CLR,0.00,VWS V14.01,2013-01-04 09:50:00,
2013-01-04 04:00:00,18.5,15.0,30.09,WNW,300,5.0,13.6,86,0.00,,CLR,0.00,VWS V14.01,2013-01-04 10:00:00,
2013-01-04 04:10:00,19.5,15.7,30.10,SW,226,6.0,12.6,85,0.00,,CLR,0.00,VWS V14.01,2013-01-04 10:10:00,
2013-01-04 04:20:00,19.0,15.2,30.09,SW,221,11.0,13.6,85,0.00,,CLR,0.00,VWS V14.01,2013-01-04 10:20:00,
2013-01-04 04:30:00,18.8,14.8,30.09,SW,220,9.0,12.6,84,0.00,,CLR,0.00,VWS V14.01,2013-01-04 10:30:00,
2013-01-04 04:40:00,19.4,15.4,30.09,SW,236,10.0,12.6,84,0.00,,CLR,0.00,VWS V14.01,2013-01-04 10:40:00,
2013-01-04 04:50:00,18.2,13.9,30.09,West,261,7.0,10.5,83,0.00,,CLR,0.00,VWS V14.01,2013-01-04 10:50:00,
2013-01-04 05:00:00,17.4,13.4,30.08,West,271,4.0,9.4,84,0.00,,CLR,0.00,VWS V14.01,2013-01-04 11:00:00,
2013-01-04 05:10:00,17.9,14.2,30.09,West,280,5.0,10.5,85,0.00,,CLR,0.00,VWS V14.01,2013-01-04 11:10:00,
2013-01-04 05:20:00,17.5,13.5,30.09,NW,306,4.0,9.4,84,0.00,,CLR,0.00,VWS V14.01,2013-01-04 11:20:00,
2013-01-04 05:30:00,17.3,13.0,30.09,SW,232,7.0,10.5,83,0.00,,CLR,0.00,VWS V14.01,2013-01-04 11:30:00,
2013-01-04 05:40:00,16.4,12.7,30.10,West,279,3.0,9.4,85,0.00,,CLR,0.00,VWS V14.01,2013-01-04 11:40:00,
2013-01-04 05:50:00,16.4,12.9,30.10,WSW,244,4.0,9.4,86,0.00,,CLR,0.00,VWS V14.01,2013-01-04 11:50:00,
2013-01-04 06:00:00,16.6,12.9,30.10,West,267,4.0,7.3,85,0.00,,CLR,0.00,VWS V14.01,2013-01-04 12:00:00,
2013-01-04 06:10:00,16.8,12.8,30.10,SW,221,6.0,9.4,84,0.00,,CLR,0.00,VWS V14.01,2013-01-04 12:10:00,
2013-01-04 06:20:00,17.2,13.2,30.10,West,267,4.0,11.5,84,0.00,,CLR,0.00,VWS V14.01,2013-01-04 12:20:00,
2013-01-04 06:30:00,18.1,13.8,30.10,West,265,10.0,12.6,83,0.00,,CLR,0.00,VWS V14.01,2013-01-04 12:30:00,
2013-01-04 06:40:00,19.3,14.7,30.10,West,263,9.0,12.6,82,0.00,,CLR,0.00,VWS V14.01,2013-01-04 12:40:00,
2013-01-04 06:50:00,19.3,14.4,30.11,SW,215,10.0,11.5,81,0.00,,CLR,0.00,VWS V14.01,2013-01-04 12:50:00,
2013-01-04 07:00:00,18.6,14.0,30.11,West,277,8.0,14.7,82,0.00,,CLR,0.00,VWS V14.01,2013-01-04 13:00:00,
2013-01-04 07:10:00,18.5,13.9,30.11,West,271,10.0,12.6,82,0.00,,CLR,0.00,VWS V14.01,2013-01-04 13:10:00,
2013-01-04 07:20:00,17.9,13.4,30.11,SW,232,7.0,11.5,82,0.00,,CLR,0.00,VWS V14.01,2013-01-04 13:20:00,
2013-01-04 07:30:00,17.3,13.0,30.11,WSW,256,6.0,10.5,83,0.00,,CLR,0.00,VWS V14.01,2013-01-04 13:30:00,
2013-01-04 07:40:00,17.5,13.5,30.12,West,277,6.0,9.4,84,0.00,,CLR,0.00,VWS V14.01,2013-01-04 13:40:00,
2013-01-04 07:50:00,17.2,12.9,30.12,WNW,295,6.0,9.4,83,0.00,,CLR,0.00,VWS V14.01,2013-01-04 13:50:00,
2013-01-04 08:00:00,17.4,13.4,30.12,West,270,6.0,10.5,84,0.00,,CLR,0.00,VWS V14.01,2013-01-04 14:00:00,
2013-01-04 08:10:00,17.2,12.9,30.12,WSW,239,3.0,10.5,83,0.00,,CLR,0.00,VWS V14.01,2013-01-04 14:10:00,
2013-01-04 08:20:00,17.5,13.2,30.13,West,279,7.0,10.5,83,0.00,,CLR,0.00,VWS V14.01,2013-01-04 14:20:00,
2013-01-04 08:30:00,17.6,13.1,30.13,West,279,6.0,11.5,82,0.00,,CLR,0.00,VWS V14.01,2013-01-04 14:30:00,
2013-01-04 08:40:00,17.3,12.8,30.13,WSW,254,8.0,11.5,82,0.00,,CLR,0.00,VWS V14.01,2013-01-04 14:40:00,
2013-01-04 08:50:00,17.2,12.7,30.13,West,275,7.0,11.5,82,0.00,,CLR,0.00,VWS V14.01,2013-01-04 14:50:00,
2013-01-04 09:00:00,17.4,13.1,30.13,WNW,282,9.0,12.6,83,0.00,,CLR,0.00,VWS V14.01,2013-01-04 15:00:00,
2013-01-04 09:10:00,17.7,13.4,30.14,West,268,6.0,11.5,83,0.00,,CLR,0.00,VWS V14.01,2013-01-04 15:10:00,
2013-01-04 09:20:00,18.1,13.5,30.14,West,261,6.0,11.5,82,0.00,,CLR,0.00,VWS V14.01,2013-01-04 15:20:00,
2013-01-04 09:30:00,18.7,14.1,30.14,WSW,238,7.0,10.5,82,0.00,,CLR,0.00,VWS V14.01,2013-01-04 15:30:00,
2013-01-04 09:40:00,18.7,14.1,30.15,West,270,4.0,10.5,82,0.00,,CLR,0.00,VWS V14.01,2013-01-04 15:40:00,
2013-01-04 09:50:00,18.8,14.2,30.16,West,270,6.0,12.6,82,0.00,,CLR,0.00,VWS V14.01,2013-01-04 15:50:00,
2013-01-04 10:00:00,19.2,14.6,30.16,West,279,7.0,10.5,82,0.00,,CLR,0.00,VWS V14.01,2013-01-04 16:00:00,
2013-01-04 10:10:00,19.7,15.1,30.16,West,281,2.0,11.5,82,0.00,,CLR,0.00,VWS V14.01,2013-01-04 16:10:00,
2013-01-04 10:20:00,19.7,15.1,30.16,West,268,3.0,6.3,82,0.00,,CLR,0.00,VWS V14.01,2013-01-04 16:20:00,
2013-01-04 10:30:00,19.8,15.2,30.17,West,278,3.0,6.3,82,0.00,,CLR,0.00,VWS V14.01,2013-01-04 16:30:00,
2013-01-04 10:40:00,19.9,15.3,30.17,West,266,3.0,6.3,82,0.00,,CLR,0.00,VWS V14.01,2013-01-04 16:40:00,
2013-01-04 10:50:00,20.2,15.6,30.17,West,275,4.0,7.3,82,0.00,,CLR,0.00,VWS V14.01,2013-01-04 16:50:00,
2013-01-04 11:00:00,20.6,16.0,30.17,SW,231,4.0,8.4,82,0.00,,CLR,0.00,VWS V14.01,2013-01-04 17:00:00,
2013-01-04 11:10:00,21.0,16.4,30.17,West,275,5.0,7.3,82,0.00,,CLR,0.00,VWS V14.01,2013-01-04 17:10:00,
2013-01-04 11:20:00,21.3,16.4,30.17,WSW,258,4.0,6.3,81,0.00,,CLR,0.00,VWS V14.01,2013-01-04 17:20:00,
2013-01-04 11:30:00,21.6,16.7,30.17,West,278,4.0,7.3,81,0.00,,CLR,0.00,VWS V14.01,2013-01-04 17:30:00,
2013-01-04 11:40:00,22.1,17.2,30.17,West,259,2.0,6.3,81,0.00,,CLR,0.00,VWS V14.01,2013-01-04 17:40:00,
2013-01-04 11:50:00,22.3,17.4,30.17,West,276,5.0,7.3,81,0.00,,CLR,0.00,VWS V14.01,2013-01-04 17:50:00,
2013-01-04 12:00:00,22.6,17.7,30.16,West,272,6.0,7.3,81,0.00,,CLR,0.00,VWS V14.01,2013-01-04 18:00:00,
2013-01-04 12:10:00,22.8,18.1,30.16,West,280,3.0,9.4,82,0.00,,CLR,0.00,VWS V14.01,2013-01-04 18:10:00,
2013-01-04 12:20:00,23.3,18.6,30.16,WNW,300,3.0,6.3,82,0.00,,CLR,0.00,VWS V14.01,2013-01-04 18:20:00,
2013-01-04 12:30:00,23.5,18.8,30.15,West,278,3.0,6.3,82,0.00,,CLR,0.00,VWS V14.01,2013-01-04 18:30:00,
2013-01-04 12:40:00,24.2,18.6,30.15,West,275,4.0,6.3,79,0.00,,CLR,0.00,VWS V14.01,2013-01-04 18:40:00,
2013-01-04 12:50:00,24.7,19.1,30.14,WNW,285,3.0,7.3,79,0.00,,CLR,0.00,VWS V14.01,2013-01-04 18:50:00,
2013-01-04 13:00:00,25.0,19.1,30.15,West,269,3.0,6.3,78,0.00,,CLR,0.00,VWS V14.01,2013-01-04 19:00:00,
2013-01-04 13:10:00,25.3,19.7,30.14,WNW,292,2.0,7.3,79,0.00,,CLR,0.00,VWS V14.01,2013-01-04 19:10:00,
2013-01-04 13:20:00,25.8,19.9,30.14,NW,305,2.0,4.2,78,0.00,,CLR,0.00,VWS V14.01,2013-01-04 19:20:00,
2013-01-04 13:30:00,25.8,19.6,30.14,West,264,5.0,6.3,77,0.00,,CLR,0.00,VWS V14.01,2013-01-04 19:30:00,
2013-01-04 13:40:00,25.4,19.8,30.14,West,281,6.0,8.4,79,0.00,,CLR,0.00,VWS V14.01,2013-01-04 19:40:00,
2013-01-04 13:50:00,25.3,20.0,30.13,WNW,285,4.0,9.4,80,0.00,,CLR,0.00,VWS V14.01,2013-01-04 19:50:00,
2013-01-04 14:00:00,25.2,19.9,30.15,West,273,5.0,9.4,80,0.00,,CLR,0.00,VWS V14.01,2013-01-04 20:00:00,
2013-01-04 14:10:00,25.4,20.1,30.15,WSW,246,3.0,8.4,80,0.00,,CLR,0.00,VWS V14.01,2013-01-04 20:10:00,
2013-01-04 14:20:00,25.6,20.3,30.15,West,275,3.0,6.3,80,0.00,,CLR,0.00,VWS V14.01,2013-01-04 20:20:00,
2013-01-04 14:30:00,25.9,20.6,30.15,West,267,2.0,6.3,80,0.00,,CLR,0.00,VWS V14.01,2013-01-04 20:30:00,
2013-01-04 14:40:00,26.3,21.0,30.15,SW,234,1.0,5.2,80,0.00,,CLR,0.00,VWS V14.01,2013-01-04 20:40:00,
2013-01-04 14:50:00,26.6,21.3,30.15,SW,232,3.0,5.2,80,0.00,,CLR,0.00,VWS V14.01,2013-01-04 20:50:00,
2013-01-04 15:00:00,26.7,21.1,30.15,West,271,3.0,5.2,79,0.00,,CLR,0.00,VWS V14.01,2013-01-04 21:00:00,
2013-01-04 15:10:00,25.8,20.2,30.15,WSW,257,1.0,5.2,79,0.00,,CLR,0.00,VWS V14.01,2013-01-04 21:10:00,
2013-01-04 15:20:00,25.6,20.3,30.15,West,277,0.0,4.2,80,0.00,,CLR,0.00,VWS V14.01,2013-01-04 21:20:00,
2013-01-04 15:30:00,26.1,20.2,30.15,SW,227,3.0,4.2,78,0.00,,CLR,0.00,VWS V14.01,2013-01-04 21:30:00,
2013-01-04 15:40:00,25.3,19.7,30.15,West,271,0.0,4.2,79,0.00,,CLR,0.00,VWS V14.01,2013-01-04 21:40:00,
2013-01-04 15:50:00,25.5,19.6,30.15,SSW,213,3.0,3.1,78,0.00,,CLR,0.00,VWS V14.01,2013-01-04 21:50:00,
2013-01-04 16:00:00,25.1,19.8,30.16,SSW,213,0.0,3.1,80,0.00,,CLR,0.00,VWS V14.01,2013-01-04 22:00:00,
2013-01-04 16:10:00,25.7,19.8,30.16,WNW,285,0.0,2.1,78,0.00,,,0.00,VWS V14.01,2013-01-04 22:10:00,
2013-01-04 16:20:00,25.0,19.1,30.16,WNW,285,0.0,0.0,78,0.00,,,0.00,VWS V14.01,2013-01-04 22:20:00,
2013-01-04 16:30:00,25.0,19.4,30.16,WNW,285,0.0,0.0,79,0.00,,CLR,0.00,VWS V14.01,2013-01-04 22:30:00,
2013-01-04 16:40:00,25.8,19.6,30.16,WNW,285,0.0,0.0,77,0.00,,CLR,0.00,VWS V14.01,2013-01-04 22:40:00,
2013-01-04 16:50:00,24.2,18.3,30.16,WNW,285,0.0,0.0,78,0.00,,CLR,0.00,VWS V14.01,2013-01-04 22:50:00,
2013-01-04 17:00:00,22.8,17.9,30.16,SSW,198,1.0,3.1,81,0.00,,CLR,0.00,VWS V14.01,2013-01-04 23:00:00,
2013-01-04 17:10:00,21.9,17.3,30.16,SSW,198,0.0,1.0,82,0.00,,CLR,0.00,VWS V14.01,2013-01-04 23:10:00,
2013-01-04 17:20:00,21.8,17.7,30.16,SSW,198,0.0,0.0,84,0.00,,CLR,0.00,VWS V14.01,2013-01-04 23:20:00,
2013-01-04 17:30:00,21.7,17.6,30.16,SSW,198,0.0,0.0,84,0.00,,CLR,0.00,VWS V14.01,2013-01-04 23:30:00,
2013-01-04 17:40:00,21.5,17.4,30.16,SSW,198,0.0,0.0,84,0.00,,CLR,0.00,VWS V14.01,2013-01-04 23:40:00,
2013-01-04 17:50:00,21.1,17.3,30.15,SSW,198,0.0,0.0,85,0.00,,CLR,0.00,VWS V14.01,2013-01-04 23:50:00,
2013-01-04 18:00:00,21.3,17.5,30.15,SSW,198,0.0,0.0,85,0.00,,CLR,0.00,VWS V14.01,2013-01-05 00:00:00,
2013-01-04 18:10:00,21.3,17.2,30.15,SE,129,2.0,3.1,84,0.00,,CLR,0.00,VWS V14.01,2013-01-05 00:10:00,
2013-01-04 18:20:00,18.3,13.7,30.15,SE,135,2.0,3.1,82,0.00,,CLR,0.00,VWS V14.01,2013-01-05 00:20:00,
2013-01-04 18:30:00,16.2,12.8,30.15,SE,136,0.0,3.1,86,0.00,,CLR,0.00,VWS V14.01,2013-01-05 00:30:00,
2013-01-04 18:40:00,16.5,13.6,30.15,SE,136,0.0,0.0,88,0.00,,CLR,0.00,VWS V14.01,2013-01-05 00:40:00,
2013-01-04 18:50:00,16.6,13.7,30.15,SE,136,0.0,0.0,88,0.00,,CLR,0.00,VWS V14.01,2013-01-05 00:50:00,
2013-01-04 19:00:00,16.6,13.7,30.16,SE,136,0.0,0.0,88,0.00,,CLR,0.00,VWS V14.01,2013-01-05 01:00:00,
2013-01-04 19:10:00,15.8,12.6,30.16,SE,136,0.0,0.0,87,0.00,,CLR,0.00,VWS V14.01,2013-01-05 01:10:00,
2013-01-04 19:20:00,15.0,12.1,30.16,SE,136,0.0,0.0,88,0.00,,CLR,0.00,VWS V14.01,2013-01-05 01:20:00,
2013-01-04 19:30:00,15.4,13.0,30.16,SE,136,0.0,0.0,90,0.00,,CLR,0.00,VWS V14.01,2013-01-05 01:30:00,
2013-01-04 19:40:00,15.4,12.7,30.17,SE,136,0.0,0.0,89,0.00,,CLR,0.00,VWS V14.01,2013-01-05 01:40:00,
2013-01-04 19:50:00,14.8,11.9,30.17,SE,136,0.0,0.0,88,0.00,,CLR,0.00,VWS V14.01,2013-01-05 01:50:00,
2013-01-04 20:00:00,14.5,11.6,30.16,SE,136,0.0,0.0,88,0.00,,CLR,0.00,VWS V14.01,2013-01-05 02:00:00,
2013-01-04 20:10:00,14.3,11.7,30.16,SE,136,0.0,0.0,89,0.00,,CLR,0.00,VWS V14.01,2013-01-05 02:10:00,
2013-01-04 20:20:00,14.6,12.7,30.15,SE,135,3.0,4.2,92,0.00,,CLR,0.00,VWS V14.01,2013-01-05 02:20:00,
2013-01-04 20:30:00,14.6,12.5,30.15,SE,135,5.0,5.2,91,0.00,,CLR,0.00,VWS V14.01,2013-01-05 02:30:00,
2013-01-04 20:40:00,14.6,12.2,30.14,SE,135,1.0,6.3,90,0.00,,CLR,0.00,VWS V14.01,2013-01-05 02:40:00,
2013-01-04 20:50:00,12.1,9.2,30.14,SE,135,0.0,3.1,88,0.00,,CLR,0.00,VWS V14.01,2013-01-05 02:50:00,
2013-01-04 21:00:00,11.3,8.7,30.14,SE,135,0.0,1.0,89,0.00,,CLR,0.00,VWS V14.01,2013-01-05 03:00:00,
2013-01-04 21:10:00,11.0,8.6,30.13,SE,135,3.0,4.2,90,0.00,,CLR,0.00,VWS V14.01,2013-01-05 03:10:00,
2013-01-04 21:20:00,10.3,8.0,30.12,SE,135,1.0,4.2,90,0.00,,CLR,0.00,VWS V14.01,2013-01-05 03:20:00,
2013-01-04 21:30:00,12.8,11.2,30.12,SE,128,5.0,6.3,93,0.00,,CLR,0.00,VWS V14.01,2013-01-05 03:30:00,
2013-01-04 21:40:00,11.0,8.9,30.12,SE,136,4.0,6.3,91,0.00,,CLR,0.00,VWS V14.01,2013-01-05 03:40:00,
2013-01-04 21:50:00,13.5,12.1,30.12,SE,144,6.0,7.3,94,0.00,,CLR,0.00,VWS V14.01,2013-01-05 03:50:00,
2013-01-04 22:00:00,12.6,10.5,30.11,SE,144,6.0,7.3,91,0.00,,CLR,0.00,VWS V14.01,2013-01-05 04:00:00,
2013-01-04 22:10:00,13.9,12.2,30.10,SE,138,7.0,7.3,93,0.00,,CLR,0.00,VWS V14.01,2013-01-05 04:10:00,
2013-01-04 22:20:00,12.7,10.8,30.10,SE,136,4.0,7.3,92,0.00,,CLR,0.00,VWS V14.01,2013-01-05 04:20:00,
2013-01-04 22:30:00,10.5,8.1,30.10,SE,134,0.0,4.2,90,0.00,,CLR,0.00,VWS V14.01,2013-01-05 04:30:00,
2013-01-04 22:40:00,10.2,8.1,30.11,SE,134,0.0,0.0,91,0.00,,CLR,0.00,VWS V14.01,2013-01-05 04:40:00,
2013-01-04 22:50:00,10.0,7.9,30.11,SE,134,0.0,0.0,91,0.00,,CLR,0.00,VWS V14.01,2013-01-05 04:50:00,
2013-01-04 23:00:00,9.8,7.7,30.12,SE,134,0.0,0.0,91,0.00,,CLR,0.00,VWS V14.01,2013-01-05 05:00:00,
2013-01-04 23:10:00,10.4,8.5,30.12,SE,134,0.0,0.0,92,0.00,,CLR,0.00,VWS V14.01,2013-01-05 05:10:00,
2013-01-04 23:20:00,9.9,8.1,30.12,SE,134,0.0,0.0,92,0.00,,CLR,0.00,VWS V14.01,2013-01-05 05:20:00,
2013-01-04 23:30:00,10.0,8.1,30.11,SE,134,1.0,2.1,92,0.00,,CLR,0.00,VWS V14.01,2013-01-05 05:30:00,
2013-01-04 23:40:00,10.7,8.8,30.11,SE,134,0.0,1.0,92,0.00,,CLR,0.00,VWS V14.01,2013-01-05 05:40:00,
2013-01-04 23:50:00,10.0,8.1,30.11,SE,134,0.0,0.0,92,0.00,,CLR,0.00,VWS V14.01,2013-01-05 05:50:00,